createdAt,value
2022-08-27T00:00:49.456Z,100.00
2022-08-27T00:03:16.561Z,100.00
2022-08-27T00:05:44.113Z,100.00
2022-08-27T00:08:12.690Z,100.00
2022-08-27T00:10:40.629Z,100.00
2022-08-27T00:13:07.758Z,100.00
2022-08-27T00:15:34.587Z,100.00
2022-08-27T00:18:01.253Z,100.00
2022-08-27T00:20:28.357Z,100.00
2022-08-27T00:22:55.032Z,100.00
2022-08-27T00:25:22.105Z,100.00
2022-08-27T00:27:48.798Z,100.00
2022-08-27T00:30:18.351Z,100.00
2022-08-27T00:32:45.586Z,100.00
2022-08-27T00:35:14.132Z,100.00
2022-08-27T00:37:41.115Z,100.00
2022-08-27T00:40:10.845Z,100.00
2022-08-27T00:42:37.855Z,100.00
2022-08-27T00:45:06.694Z,100.00
2022-08-27T00:47:40.561Z,100.00
2022-08-27T00:50:16.587Z,100.00
2022-08-27T00:52:46.188Z,100.00
2022-08-27T00:55:18.742Z,100.00
2022-08-27T00:57:52.484Z,100.00
2022-08-27T01:00:20.306Z,100.00
2022-08-27T01:02:47.849Z,100.00
2022-08-27T01:05:20.501Z,100.00
2022-08-27T01:07:50.664Z,100.00
2022-08-27T01:10:21.888Z,100.00
2022-08-27T01:12:53.498Z,100.00
2022-08-27T01:15:23.312Z,100.00
2022-08-27T01:17:50.997Z,100.00
2022-08-27T01:20:24.725Z,100.00
2022-08-27T01:22:55.720Z,100.00
2022-08-27T01:25:23.910Z,100.00
2022-08-27T01:27:52.199Z,100.00
2022-08-27T01:30:21.688Z,100.00
2022-08-27T01:32:48.765Z,100.00
2022-08-27T01:35:16.518Z,100.00
2022-08-27T01:37:47.633Z,100.00
2022-08-27T01:40:16.677Z,100.00
2022-08-27T01:42:48.537Z,100.00
2022-08-27T01:45:20.543Z,100.00
2022-08-27T01:47:47.624Z,100.00
2022-08-27T01:50:24.509Z,100.00
2022-08-27T01:52:52.338Z,100.00
2022-08-27T01:55:22.607Z,100.00
2022-08-27T01:57:49.729Z,100.00
2022-08-27T02:00:25.268Z,100.00
2022-08-27T02:02:51.958Z,100.00
2022-08-27T02:05:19.517Z,100.00
2022-08-27T02:07:46.264Z,100.00
2022-08-27T02:10:18.105Z,100.00
2022-08-27T02:12:45.067Z,100.00
2022-08-27T02:15:12.413Z,100.00
2022-08-27T02:17:39.963Z,100.00
2022-08-27T02:20:09.031Z,100.00
2022-08-27T02:22:35.729Z,100.00
2022-08-27T02:25:02.633Z,100.00
2022-08-27T02:27:29.388Z,100.00
2022-08-27T02:29:56.029Z,100.00
2022-08-27T02:32:32.211Z,100.00
2022-08-27T02:34:59.625Z,100.00
2022-08-27T02:37:26.373Z,100.00
2022-08-27T02:39:53.093Z,100.00
2022-08-27T02:42:19.760Z,100.00
2022-08-27T02:44:47.207Z,100.00
2022-08-27T02:47:14.442Z,100.00
2022-08-27T02:49:41.271Z,100.00
2022-08-27T02:52:07.880Z,100.00
2022-08-27T02:54:34.520Z,100.00
2022-08-27T02:57:01.201Z,100.00
2022-08-27T02:59:27.864Z,100.00
2022-08-27T03:01:54.625Z,100.00
2022-08-27T03:04:22.762Z,100.00
2022-08-27T03:06:49.493Z,100.00
2022-08-27T03:09:16.120Z,100.00
2022-08-27T03:11:42.733Z,100.00
2022-08-27T03:14:09.420Z,100.00
2022-08-27T03:16:37.494Z,100.00
2022-08-27T03:19:06.763Z,100.00
2022-08-27T03:21:35.137Z,100.00
2022-08-27T03:24:11.643Z,100.00
2022-08-27T03:26:41.364Z,100.00
2022-08-27T03:29:07.973Z,100.00
2022-08-27T03:31:34.776Z,100.00
2022-08-27T03:34:06.781Z,100.00
2022-08-27T03:36:33.493Z,100.00
2022-08-27T03:39:00.158Z,100.00
2022-08-27T03:41:43.777Z,100.00
2022-08-27T03:44:21.368Z,100.00
2022-08-27T03:46:49.565Z,100.00
2022-08-27T03:49:20.611Z,100.00
2022-08-27T03:51:49.247Z,100.00
2022-08-27T03:54:16.009Z,100.00
2022-08-27T03:56:42.604Z,100.00
2022-08-27T03:59:09.226Z,100.00
2022-08-27T04:01:36.038Z,100.00
2022-08-27T04:04:03.367Z,100.00
2022-08-27T04:06:30.186Z,100.00
2022-08-27T04:08:56.833Z,100.00
2022-08-27T04:11:23.956Z,100.00
2022-08-27T04:13:51.380Z,100.00
2022-08-27T04:16:18.085Z,100.00
2022-08-27T04:18:44.785Z,100.00
2022-08-27T04:21:13.656Z,100.00
2022-08-27T04:23:41.825Z,100.00
2022-08-27T04:26:09.729Z,100.00
2022-08-27T04:28:38.628Z,100.00
2022-08-27T04:31:06.293Z,100.00
2022-08-27T04:33:35.730Z,100.00
2022-08-27T04:36:06.112Z,100.00
2022-08-27T04:38:33.512Z,100.00
2022-08-27T04:41:27.461Z,100.00
2022-08-27T04:43:56.987Z,100.00
2022-08-27T04:46:26.611Z,100.00
2022-08-27T04:48:53.529Z,100.00
2022-08-27T04:51:20.917Z,100.00
2022-08-27T04:53:49.934Z,100.00
2022-08-27T04:56:19.186Z,100.00
2022-08-27T04:58:45.796Z,100.00
2022-08-27T05:01:25.099Z,100.00
2022-08-27T05:03:53.011Z,100.00
2022-08-27T05:06:21.217Z,100.00
2022-08-27T05:08:50.108Z,100.00
2022-08-27T05:11:19.367Z,100.00
2022-08-27T05:13:47.529Z,100.00
2022-08-27T05:16:20.850Z,100.00
2022-08-27T05:18:50.157Z,100.00
2022-08-27T05:21:18.545Z,100.00
2022-08-27T05:23:45.188Z,100.00
2022-08-27T05:26:12.205Z,100.00
2022-08-27T05:28:39.007Z,100.00
2022-08-27T05:31:08.681Z,100.00
2022-08-27T05:33:37.333Z,100.00
2022-08-27T05:36:05.166Z,100.00
2022-08-27T05:38:32.427Z,100.00
2022-08-27T05:41:09.057Z,100.00
2022-08-27T05:43:37.188Z,100.00
2022-08-27T05:46:10.020Z,100.00
2022-08-27T05:48:37.474Z,100.00
2022-08-27T05:51:41.452Z,100.00
2022-08-27T05:54:14.805Z,100.00
2022-08-27T05:56:42.264Z,100.00
2022-08-27T05:59:27.735Z,100.00
2022-08-27T06:01:56.142Z,100.00
2022-08-27T06:04:24.394Z,100.00
2022-08-27T06:06:51.828Z,100.00
2022-08-27T06:09:22.208Z,100.00
2022-08-27T06:11:49.284Z,100.00
2022-08-27T06:14:15.914Z,100.00
2022-08-27T06:16:42.706Z,100.00
2022-08-27T06:19:12.082Z,100.00
2022-08-27T06:21:40.099Z,100.00
2022-08-27T06:24:07.770Z,100.00
2022-08-27T06:26:34.995Z,100.00
2022-08-27T06:29:06.800Z,100.00
2022-08-27T06:31:35.449Z,100.00
2022-08-27T06:34:07.463Z,100.00
2022-08-27T06:36:37.194Z,100.00
2022-08-27T06:39:04.455Z,100.00
2022-08-27T06:41:32.576Z,100.00
2022-08-27T06:43:59.218Z,100.00
2022-08-27T06:46:29.467Z,100.00
2022-08-27T06:48:58.707Z,100.00
2022-08-27T06:51:28.783Z,100.00
2022-08-27T06:53:57.396Z,100.00
2022-08-27T06:56:24.295Z,100.00
2022-08-27T06:58:59.605Z,100.00
2022-08-27T07:01:30.372Z,100.00
2022-08-27T07:04:02.657Z,100.00
2022-08-27T07:06:31.754Z,100.00
2022-08-27T07:08:59.127Z,100.00
2022-08-27T07:11:27.517Z,100.00
2022-08-27T07:13:54.794Z,100.00
2022-08-27T07:16:24.515Z,100.00
2022-08-27T07:18:53.283Z,100.00
2022-08-27T07:21:20.930Z,100.00
2022-08-27T07:23:49.163Z,100.00
2022-08-27T07:26:16.821Z,100.00
2022-08-27T07:28:44.844Z,100.00
2022-08-27T07:31:13.937Z,100.00
2022-08-27T07:33:42.144Z,100.00
2022-08-27T07:36:18.499Z,100.00
2022-08-27T07:38:48.439Z,100.00
2022-08-27T07:41:24.931Z,100.00
2022-08-27T07:44:16.840Z,100.00
2022-08-27T07:46:47.903Z,100.00
2022-08-27T07:49:15.460Z,100.00
2022-08-27T07:51:42.094Z,100.00
2022-08-27T07:54:08.976Z,100.00
2022-08-27T07:56:35.609Z,100.00
2022-08-27T07:59:02.434Z,100.00
2022-08-27T08:01:29.722Z,100.00
2022-08-27T08:03:56.956Z,100.00
2022-08-27T08:06:23.726Z,100.00
2022-08-27T08:08:50.394Z,100.00
2022-08-27T08:11:18.424Z,100.00
2022-08-27T08:13:46.490Z,100.00
2022-08-27T08:16:13.562Z,100.00
2022-08-27T08:18:40.701Z,100.00
2022-08-27T08:21:12.301Z,100.00
2022-08-27T08:23:39.485Z,100.00
2022-08-27T08:26:07.363Z,100.00
2022-08-27T08:28:34.384Z,100.00
2022-08-27T08:31:01.606Z,100.00
2022-08-27T08:33:28.674Z,100.00
2022-08-27T08:35:55.358Z,100.00
2022-08-27T08:38:22.088Z,100.00
2022-08-27T08:40:54.470Z,100.00
2022-08-27T08:43:35.816Z,100.00
2022-08-27T08:46:34.744Z,100.00
2022-08-27T08:49:10.455Z,100.00
2022-08-27T08:51:42.103Z,100.00
2022-08-27T08:54:15.913Z,100.00
2022-08-27T08:56:55.269Z,100.00
2022-08-27T08:59:36.152Z,100.00
2022-08-27T09:02:02.823Z,100.00
2022-08-27T09:04:30.044Z,100.00
2022-08-27T09:07:10.097Z,100.00
2022-08-27T09:09:45.825Z,100.00
2022-08-27T09:12:19.235Z,100.00
2022-08-27T09:15:14.132Z,100.00
2022-08-27T09:17:42.124Z,100.00
2022-08-27T09:20:13.255Z,100.00
2022-08-27T09:22:51.345Z,100.00
2022-08-27T09:25:28.058Z,100.00
2022-08-27T09:28:01.077Z,100.00
2022-08-27T09:30:32.237Z,100.00
2022-08-27T09:33:01.777Z,100.00
2022-08-27T09:35:44.760Z,100.00
2022-08-27T09:38:19.523Z,100.00
2022-08-27T09:40:50.518Z,100.00
2022-08-27T09:43:17.190Z,100.00
2022-08-27T09:45:49.080Z,100.00
2022-08-27T09:48:20.843Z,100.00
2022-08-27T09:50:56.871Z,100.00
2022-08-27T09:53:44.576Z,100.00
2022-08-27T09:56:25.387Z,100.00
2022-08-27T09:59:02.754Z,100.00
2022-08-27T10:01:32.817Z,100.00
2022-08-27T10:04:10.059Z,100.00
2022-08-27T10:06:37.712Z,100.00
2022-08-27T10:09:33.217Z,100.00
2022-08-27T10:12:07.571Z,100.00
2022-08-27T10:14:40.732Z,100.00
2022-08-27T10:17:21.439Z,100.00
2022-08-27T10:20:08.456Z,100.00
2022-08-27T10:22:44.648Z,100.00
2022-08-27T10:25:23.603Z,100.00
2022-08-27T10:28:05.730Z,100.00
2022-08-27T10:31:01.276Z,100.00
2022-08-27T10:33:52.320Z,98.43
2022-08-27T10:36:39.074Z,99.95
2022-08-27T10:39:35.978Z,100.00
2022-08-27T10:42:30.335Z,97.68
2022-08-27T10:45:11.781Z,95.58
2022-08-27T10:48:06.233Z,93.46
2022-08-27T10:51:01.059Z,77.89
2022-08-27T10:53:41.988Z,71.36
2022-08-27T10:56:37.892Z,69.19
2022-08-27T10:59:19.875Z,81.39
2022-08-27T11:02:08.302Z,79.48
2022-08-27T11:04:54.901Z,79.29
2022-08-27T11:07:27.592Z,78.09
2022-08-27T11:10:06.244Z,76.28
2022-08-27T11:12:44.531Z,77.97
2022-08-27T11:15:17.709Z,77.02
2022-08-27T11:17:50.461Z,80.96
2022-08-27T11:20:25.278Z,78.37
2022-08-27T11:23:08.063Z,78.03
2022-08-27T11:25:50.976Z,74.59
2022-08-27T11:28:30.196Z,69.63
2022-08-27T11:31:21.484Z,67.40
2022-08-27T11:34:16.068Z,66.91
2022-08-27T11:37:03.970Z,62.65
2022-08-27T11:40:08.279Z,66.53
2022-08-27T11:42:38.984Z,53.88
2022-08-27T11:45:29.734Z,53.80
2022-08-27T11:48:24.317Z,48.39
2022-08-27T11:50:57.362Z,48.44
2022-08-27T11:53:28.829Z,43.96
2022-08-27T11:55:56.185Z,44.77
2022-08-27T11:58:29.749Z,41.31
2022-08-27T12:01:03.801Z,44.75
2022-08-27T12:03:35.405Z,49.32
2022-08-27T12:06:18.535Z,49.91
2022-08-27T12:08:45.524Z,55.07
2022-08-27T12:11:44.274Z,59.17
2022-08-27T12:14:29.238Z,62.06
2022-08-27T12:17:08.226Z,64.45
2022-08-27T12:20:07.789Z,64.85
2022-08-27T12:23:02.290Z,56.61
2022-08-27T12:25:29.294Z,52.59
2022-08-27T12:28:05.352Z,52.78
2022-08-27T12:30:36.331Z,53.86
2022-08-27T12:33:14.791Z,56.68
2022-08-27T12:35:50.594Z,51.03
2022-08-27T12:38:50.865Z,54.53
2022-08-27T12:41:31.936Z,56.45
2022-08-27T12:44:04.852Z,61.55
2022-08-27T12:46:31.918Z,66.50
2022-08-27T12:49:35.900Z,71.18
2022-08-27T12:51:48.861Z,71.44
2022-08-27T12:54:36.980Z,74.03
2022-08-27T12:57:24.402Z,75.94
2022-08-27T13:00:05.355Z,75.77
2022-08-27T13:02:58.472Z,76.29
2022-08-27T13:05:25.153Z,75.23
2022-08-27T13:07:53.629Z,73.44
2022-08-27T13:10:32.456Z,72.84
2022-08-27T13:13:12.188Z,76.05
2022-08-27T13:15:46.357Z,71.15
2022-08-27T13:18:13.430Z,68.69
2022-08-27T13:20:40.900Z,68.05
2022-08-27T13:23:20.385Z,62.02
2022-08-27T13:26:03.754Z,59.37
2022-08-27T13:28:31.514Z,55.35
2022-08-27T13:31:00.028Z,53.57
2022-08-27T13:33:31.294Z,48.37
2022-08-27T13:35:59.027Z,48.45
2022-08-27T13:38:28.894Z,47.38
2022-08-27T13:40:59.169Z,44.28
2022-08-27T13:43:37.461Z,45.20
2022-08-27T13:46:12.351Z,48.32
2022-08-27T13:48:44.532Z,47.01
2022-08-27T13:51:13.688Z,45.92
2022-08-27T13:54:06.446Z,43.39
2022-08-27T13:56:37.246Z,44.09
2022-08-27T13:59:19.007Z,44.90
2022-08-27T14:01:54.841Z,51.79
2022-08-27T14:04:25.421Z,52.35
2022-08-27T14:06:53.438Z,61.17
2022-08-27T14:09:23.142Z,61.34
2022-08-27T14:12:05.434Z,62.95
2022-08-27T14:14:38.343Z,60.91
2022-08-27T14:17:08.744Z,62.46
2022-08-27T14:19:36.577Z,56.50
2022-08-27T14:22:04.644Z,56.79
2022-08-27T14:24:31.360Z,52.43
2022-08-27T14:27:07.790Z,50.50
2022-08-27T14:29:34.499Z,51.63
2022-08-27T14:32:01.275Z,45.71
2022-08-27T14:34:28.878Z,43.81
2022-08-27T14:36:55.569Z,43.00
2022-08-27T14:39:26.471Z,40.64
2022-08-27T14:41:53.426Z,41.55
2022-08-27T14:44:22.345Z,43.31
2022-08-27T14:46:49.537Z,49.25
2022-08-27T14:49:30.930Z,50.64
2022-08-27T14:51:58.091Z,54.59
2022-08-27T14:54:29.120Z,55.10
2022-08-27T14:57:02.194Z,44.17
2022-08-27T14:59:29.333Z,38.81
2022-08-27T15:01:58.231Z,37.80
2022-08-27T15:04:26.587Z,36.10
2022-08-27T15:06:55.074Z,37.06
2022-08-27T15:09:22.530Z,38.96
2022-08-27T15:11:51.155Z,37.04
2022-08-27T15:14:25.756Z,37.74
2022-08-27T15:16:53.452Z,39.36
2022-08-27T15:19:22.097Z,40.13
2022-08-27T15:21:50.423Z,41.86
2022-08-27T15:24:22.762Z,46.01
2022-08-27T15:26:50.760Z,49.86
2022-08-27T15:29:17.650Z,53.42
2022-08-27T15:31:45.015Z,54.61
2022-08-27T15:34:13.093Z,51.35
2022-08-27T15:36:40.964Z,48.76
2022-08-27T15:39:08.324Z,49.90
2022-08-27T15:41:50.836Z,48.96
2022-08-27T15:44:23.762Z,48.53
2022-08-27T15:46:51.276Z,43.85
2022-08-27T15:49:18.544Z,41.52
2022-08-27T15:51:45.581Z,43.75
2022-08-27T15:54:12.790Z,44.86
2022-08-27T15:56:39.956Z,44.96
2022-08-27T15:59:07.603Z,45.32
2022-08-27T16:01:37.193Z,46.65
2022-08-27T16:04:06.078Z,49.63
2022-08-27T16:06:34.814Z,53.57
2022-08-27T16:09:01.895Z,55.98
2022-08-27T16:11:28.626Z,60.46
2022-08-27T16:13:56.231Z,64.42
2022-08-27T16:16:26.425Z,65.48
2022-08-27T16:18:53.897Z,67.47
2022-08-27T16:21:20.928Z,68.97
2022-08-27T16:23:47.892Z,71.55
2022-08-27T16:26:16.790Z,74.50
2022-08-27T16:28:44.465Z,77.45
2022-08-27T16:31:13.670Z,78.41
2022-08-27T16:33:43.768Z,82.83
2022-08-27T16:36:11.186Z,83.57
2022-08-27T16:38:38.073Z,82.77
2022-08-27T16:41:05.864Z,84.12
2022-08-27T16:43:33.149Z,85.54
2022-08-27T16:46:01.618Z,86.25
2022-08-27T16:48:47.639Z,89.30
2022-08-27T16:51:32.671Z,89.85
2022-08-27T16:54:03.829Z,90.66
2022-08-27T16:56:33.858Z,93.00
2022-08-27T16:59:04.000Z,92.52
2022-08-27T17:01:31.805Z,92.65
2022-08-27T17:04:16.023Z,95.14
2022-08-27T17:06:51.521Z,93.99
2022-08-27T17:09:19.115Z,94.33
2022-08-27T17:11:50.676Z,95.85
2022-08-27T17:14:17.331Z,97.77
2022-08-27T17:16:43.978Z,96.74
2022-08-27T17:19:16.724Z,97.30
2022-08-27T17:21:45.074Z,99.76
2022-08-27T17:24:13.179Z,100.00
2022-08-27T17:26:40.468Z,100.00
2022-08-27T17:29:07.390Z,100.00
2022-08-27T17:31:40.385Z,100.00
2022-08-27T17:34:12.338Z,100.00
2022-08-27T17:36:38.986Z,100.00
2022-08-27T17:39:05.697Z,100.00
2022-08-27T17:41:34.145Z,100.00
2022-08-27T17:44:07.753Z,100.00
2022-08-27T17:46:34.388Z,100.00
2022-08-27T17:49:01.387Z,100.00
2022-08-27T17:51:28.565Z,100.00
2022-08-27T17:54:00.928Z,100.00
2022-08-27T17:56:29.486Z,100.00
2022-08-27T17:58:56.843Z,100.00
2022-08-27T18:01:28.390Z,100.00
2022-08-27T18:03:57.017Z,100.00
2022-08-27T18:06:24.879Z,100.00
2022-08-27T18:08:51.738Z,100.00
2022-08-27T18:11:19.083Z,100.00
2022-08-27T18:13:52.187Z,100.00
2022-08-27T18:16:19.812Z,100.00
2022-08-27T18:18:46.850Z,100.00
2022-08-27T18:21:13.773Z,100.00
2022-08-27T18:23:50.888Z,100.00
2022-08-27T18:26:20.381Z,100.00
2022-08-27T18:28:47.747Z,100.00
2022-08-27T18:31:17.690Z,100.00
2022-08-27T18:33:44.429Z,100.00
2022-08-27T18:36:11.230Z,100.00
2022-08-27T18:38:37.970Z,100.00
2022-08-27T18:41:08.504Z,100.00
2022-08-27T18:43:36.383Z,100.00
2022-08-27T18:46:05.086Z,100.00
2022-08-27T18:48:32.430Z,100.00
2022-08-27T18:51:02.314Z,100.00
2022-08-27T18:53:32.191Z,100.00
2022-08-27T18:55:59.330Z,100.00
2022-08-27T18:58:26.655Z,100.00
2022-08-27T19:00:58.115Z,100.00
2022-08-27T19:03:32.447Z,100.00
2022-08-27T19:06:00.592Z,100.00
2022-08-27T19:08:28.293Z,100.00
2022-08-27T19:10:55.665Z,100.00
2022-08-27T19:13:22.897Z,100.00
2022-08-27T19:15:57.463Z,100.00
2022-08-27T19:18:26.875Z,100.00
2022-08-27T19:20:54.197Z,100.00
2022-08-27T19:23:22.404Z,100.00
2022-08-27T19:25:51.841Z,100.00
2022-08-27T19:28:23.804Z,100.00
2022-08-27T19:30:50.483Z,100.00
2022-08-27T19:33:17.408Z,100.00
2022-08-27T19:35:44.134Z,100.00
2022-08-27T19:38:12.982Z,100.00
2022-08-27T19:40:40.991Z,100.00
2022-08-27T19:43:08.056Z,100.00
2022-08-27T19:45:35.549Z,100.00
2022-08-27T19:48:08.309Z,100.00
2022-08-27T19:50:35.196Z,100.00
2022-08-27T19:53:01.979Z,100.00
2022-08-27T19:55:28.694Z,100.00
2022-08-27T19:57:55.472Z,100.00
2022-08-27T20:00:24.825Z,100.00
2022-08-27T20:02:54.834Z,100.00
2022-08-27T20:05:22.783Z,100.00
2022-08-27T20:07:52.393Z,100.00
2022-08-27T20:10:21.724Z,100.00
2022-08-27T20:12:49.058Z,100.00
2022-08-27T20:15:16.071Z,100.00
2022-08-27T20:17:43.937Z,100.00
2022-08-27T20:20:12.578Z,100.00
2022-08-27T20:22:40.340Z,100.00
2022-08-27T20:25:07.525Z,100.00
2022-08-27T20:27:34.962Z,100.00
2022-08-27T20:30:03.667Z,100.00
2022-08-27T20:32:31.084Z,100.00
2022-08-27T20:34:58.806Z,100.00
2022-08-27T20:37:25.848Z,100.00
2022-08-27T20:39:52.819Z,100.00
2022-08-27T20:42:20.248Z,100.00
2022-08-27T20:44:47.745Z,100.00
2022-08-27T20:47:15.900Z,100.00
2022-08-27T20:49:44.520Z,100.00
2022-08-27T20:52:12.841Z,100.00
2022-08-27T20:54:40.554Z,100.00
2022-08-27T20:57:08.758Z,100.00
2022-08-27T20:59:53.993Z,100.00
2022-08-27T21:02:24.072Z,100.00
2022-08-27T21:04:51.146Z,100.00
2022-08-27T21:07:19.394Z,100.00
2022-08-27T21:09:57.023Z,100.00
2022-08-27T21:12:29.457Z,100.00
2022-08-27T21:14:56.815Z,100.00
2022-08-27T21:17:27.014Z,100.00
2022-08-27T21:19:53.747Z,100.00
2022-08-27T21:22:21.114Z,100.00
2022-08-27T21:24:47.933Z,100.00
2022-08-27T21:27:15.986Z,100.00
2022-08-27T21:29:44.599Z,100.00
2022-08-27T21:32:11.713Z,100.00
2022-08-27T21:34:38.425Z,100.00
2022-08-27T21:37:05.291Z,100.00
2022-08-27T21:39:33.141Z,100.00
2022-08-27T21:42:01.601Z,100.00
2022-08-27T21:44:30.235Z,100.00
2022-08-27T21:46:58.033Z,100.00
2022-08-27T21:49:24.723Z,100.00
2022-08-27T21:51:51.508Z,100.00
2022-08-27T21:54:18.135Z,100.00
2022-08-27T21:56:45.434Z,100.00
2022-08-27T21:59:12.134Z,100.00
2022-08-27T22:01:39.344Z,100.00
2022-08-27T22:04:06.545Z,100.00
2022-08-27T22:06:33.176Z,100.00
2022-08-27T22:09:00.285Z,100.00
2022-08-27T22:11:28.073Z,100.00
2022-08-27T22:13:58.277Z,100.00
2022-08-27T22:16:25.164Z,100.00
2022-08-27T22:18:54.570Z,100.00
2022-08-27T22:21:22.127Z,100.00
2022-08-27T22:23:51.273Z,100.00
2022-08-27T22:26:18.959Z,100.00
2022-08-27T22:28:45.582Z,100.00
2022-08-27T22:31:12.263Z,100.00
2022-08-27T22:33:39.049Z,100.00
2022-08-27T22:36:05.964Z,100.00
2022-08-27T22:38:32.857Z,100.00
2022-08-27T22:40:59.740Z,100.00
2022-08-27T22:43:27.788Z,100.00
2022-08-27T22:45:54.498Z,100.00
2022-08-27T22:48:21.234Z,100.00
2022-08-27T22:50:47.877Z,100.00
2022-08-27T22:53:15.653Z,100.00
2022-08-27T22:55:45.641Z,100.00
2022-08-27T22:58:14.910Z,100.00
2022-08-27T23:00:45.197Z,100.00
2022-08-27T23:03:19.058Z,100.00
2022-08-27T23:05:46.113Z,100.00
2022-08-27T23:08:13.943Z,100.00
2022-08-27T23:10:42.598Z,100.00
2022-08-27T23:13:10.959Z,100.00
2022-08-27T23:15:38.652Z,100.00
2022-08-27T23:18:06.027Z,100.00
2022-08-27T23:20:33.049Z,100.00
2022-08-27T23:22:59.888Z,100.00
2022-08-27T23:25:47.288Z,100.00
2022-08-27T23:28:15.513Z,100.00
2022-08-27T23:30:43.498Z,100.00
2022-08-27T23:33:10.291Z,100.00
2022-08-27T23:35:37.167Z,100.00
2022-08-27T23:38:03.833Z,100.00
2022-08-27T23:40:30.531Z,100.00
2022-08-27T23:42:57.269Z,100.00
2022-08-27T23:45:25.659Z,100.00
2022-08-27T23:47:52.287Z,100.00
2022-08-27T23:50:19.603Z,100.00
2022-08-27T23:52:46.243Z,100.00
2022-08-27T23:55:13.218Z,100.00
2022-08-27T23:57:40.547Z,100.00
